Time;durP1;ratioP1;P1;durP2;ratioP2;P2;SDS_P1;SDS_P2;PMS_P1;PMS_P2;Temp;Humidity;BMP_temperature;BMP_pressure;BME280_temperature;BME280_humidity;BME280_pressure;Samples;Min_cycle;Max_cycle;Signal;HPM_P1;HPM_P2
2021/12/11 00:01:00;;;;;;;1.55;1.45;;;-2.30;99.90;;;;;;6160003;22;20361;-84
2021/12/11 00:03:30;;;;;;;1.10;1.00;;;-2.30;99.90;;;;;;6160430;22;20061;-83
2021/12/11 00:06:19;;;;;;;1.58;1.05;;;-2.40;99.90;;;;;;6159738;23;20016;-83
2021/12/11 00:08:49;;;;;;;0.70;0.70;;;-2.30;99.90;;;;;;6160159;22;20055;-84
2021/12/11 00:11:29;;;;;;;1.23;1.02;;;-2.30;99.90;;;;;;6159954;23;20016;-84
2021/12/11 00:13:57;;;;;;;1.02;0.82;;;-1.30;99.90;;;;;;6159938;22;20065;-84
2021/12/11 00:16:26;;;;;;;1.30;1.20;;;-2.20;99.90;;;;;;6184446;23;20061;-84
2021/12/11 00:19:01;;;;;;;2.05;1.35;;;-2.20;99.90;;;;;;6159806;23;20013;-84
2021/12/11 00:21:27;;;;;;;2.15;1.95;;;-2.20;99.90;;;;;;6159863;22;20020;-84
2021/12/11 00:24:05;;;;;;;1.08;1.02;;;-2.20;99.90;;;;;;6159616;23;20013;-84
2021/12/11 00:26:36;;;;;;;2.35;2.15;;;-2.10;99.90;;;;;;6159699;23;20008;-84
2021/12/11 00:29:04;;;;;;;0.70;0.70;;;-2.10;99.90;;;;;;6159735;23;20096;-84
2021/12/11 00:31:31;;;;;;;2.47;1.25;;;-2.10;99.90;;;;;;6159738;23;20326;-84
2021/12/11 00:33:58;;;;;;;2.28;1.67;;;-2.30;99.90;;;;;;6159876;23;20016;-84
2021/12/11 00:36:31;;;;;;;3.70;1.83;;;-2.20;99.90;;;;;;6159638;23;20065;-84
2021/12/11 00:39:06;;;;;;;2.25;2.05;;;-2.20;99.90;;;;;;6159448;23;20024;-83
2021/12/11 00:41:33;;;;;;;6.32;5.45;;;-2.20;99.90;;;;;;6159818;23;20012;-84
2021/12/11 00:44:01;;;;;;;3.38;1.55;;;-2.20;99.90;;;;;;6159804;23;20009;-85
2021/12/11 00:46:31;;;;;;;0.65;0.65;;;-2.20;99.90;;;;;;6184827;22;20464;-84
2021/12/11 00:49:18;;;;;;;0.88;0.88;;;-2.20;99.90;;;;;;6159947;23;20024;-84
2021/12/11 00:51:52;;;;;;;1.27;1.08;;;-2.20;99.90;;;;;;6159744;22;20012;-84
2021/12/11 00:54:18;;;;;;;2.10;1.98;;;-2.20;99.90;;;;;;6160246;22;20104;-84
2021/12/11 00:56:45;;;;;;;1.35;1.25;;;-2.20;99.90;;;;;;6159720;23;20009;-84
2021/12/11 00:59:17;;;;;;;4.63;1.73;;;-2.20;99.90;;;;;;6159700;23;20400;-84
2021/12/11 01:01:53;;;;;;;1.02;0.90;;;-2.20;99.90;;;;;;6160072;22;20021;-84
2021/12/11 01:04:26;;;;;;;1.02;1.00;;;-2.10;99.90;;;;;;6159646;23;20012;-85
2021/12/11 01:07:06;;;;;;;2.22;2.05;;;-2.10;99.90;;;;;;6159539;22;20119;-85
2021/12/11 01:09:48;;;;;;;1.98;1.35;;;-2.10;99.90;;;;;;6159592;23;20020;-84
2021/12/11 01:12:46;;;;;;;1.33;1.23;;;-2.10;99.90;;;;;;6160900;22;20016;-85
2021/12/11 01:15:27;;;;;;;2.17;1.20;;;-2.20;99.90;;;;;;6159841;23;20453;-84
2021/12/11 01:18:21;;;;;;;0.70;0.70;;;-2.20;99.90;;;;;;6147041;23;20012;-84
2021/12/11 01:21:06;;;;;;;0.60;0.60;;;-2.20;99.90;;;;;;6294354;22;20013;-85
2021/12/11 01:26:09;;;;;;;1.92;1.77;;;-2.20;99.90;;;;;;6316095;22;20020;-85
2021/12/11 01:28:36;;;;;;;1.10;1.00;;;-2.20;99.90;;;;;;6289387;22;20009;-84
2021/12/11 01:31:05;;;;;;;1.27;1.13;;;-2.20;99.90;;;;;;6265302;22;20020;-85
2021/12/11 01:33:31;;;;;;;1.25;1.02;;;-2.10;99.90;;;;;;6263030;22;20390;-84
2021/12/11 01:35:57;;;;;;;2.25;1.55;;;-2.10;99.90;;;;;;6289758;22;20092;-84
2021/12/11 01:38:27;;;;;;;2.25;2.05;;;-2.20;99.90;;;;;;6263821;22;20055;-85
2021/12/11 01:41:00;;;;;;;2.67;2.08;;;-2.10;99.90;;;;;;6289392;22;20012;-84
2021/12/11 01:43:29;;;;;;;0.90;0.90;;;-2.10;99.90;;;;;;6290507;22;20012;-84
2021/12/11 01:45:56;;;;;;;1.35;1.25;;;-2.10;99.90;;;;;;6289618;22;20008;-85
2021/12/11 01:48:34;;;;;;;1.70;1.60;;;-2.10;99.90;;;;;;6315366;22;20623;-85
2021/12/11 01:51:07;;;;;;;1.02;1.00;;;-2.10;99.90;;;;;;6315897;22;20023;-84
2021/12/11 01:53:38;;;;;;;1.10;1.00;;;-2.10;99.90;;;;;;6315281;22;20016;-85
2021/12/11 01:56:18;;;;;;;0.95;0.82;;;-2.20;99.90;;;;;;6264729;22;20383;-85
2021/12/11 01:58:55;;;;;;;0.70;0.70;;;-2.30;99.90;;;;;;6290036;22;20475;-84
2021/12/11 02:01:31;;;;;;;1.30;1.17;;;-2.30;99.90;;;;;;6290331;22;20306;-84
2021/12/11 02:03:59;;;;;;;0.50;0.50;;;-2.30;99.90;;;;;;6184603;22;20008;-85
2021/12/11 02:06:28;;;;;;;0.65;0.65;;;-2.30;99.90;;;;;;6289861;22;20016;-85
2021/12/11 02:08:54;;;;;;;0.70;0.70;;;-2.30;99.90;;;;;;6289505;22;20009;-85
2021/12/11 02:11:23;;;;;;;2.90;1.83;;;-2.30;99.90;;;;;;6289248;22;20468;-85
2021/12/11 02:14:03;;;;;;;2.97;2.13;;;-2.30;99.90;;;;;;6289427;22;20020;-84
2021/12/11 02:16:38;;;;;;;0.75;0.75;;;-2.30;99.90;;;;;;6289935;22;20013;-84
2021/12/11 02:19:19;;;;;;;0.50;0.50;;;-2.30;99.90;;;;;;6288770;22;20059;-85
2021/12/11 02:21:54;;;;;;;0.60;0.60;;;-2.30;99.90;;;;;;6289633;22;20088;-84
2021/12/11 02:24:25;;;;;;;0.80;0.80;;;-2.30;99.90;;;;;;6289627;22;20016;-85
2021/12/11 02:26:54;;;;;;;3.72;3.33;;;-2.30;99.90;;;;;;6289936;22;20019;-85
2021/12/11 02:29:34;;;;;;;1.30;1.20;;;-2.20;99.90;;;;;;6289232;22;20020;-85
2021/12/11 02:32:07;;;;;;;3.42;1.98;;;-2.20;99.90;;;;;;6289707;22;20040;-85
2021/12/11 02:34:35;;;;;;;0.90;0.88;;;-2.20;99.90;;;;;;6315668;22;20044;-84
2021/12/11 02:37:39;;;;;;;1.80;1.65;;;-2.10;99.90;;;;;;6289192;22;20016;-85
2021/12/11 02:40:33;;;;;;;1.70;1.60;;;-2.40;99.90;;;;;;6160569;23;20096;-84
2021/12/11 02:43:07;;;;;;;0.63;0.55;;;-2.50;99.90;;;;;;6159421;22;20021;-84
2021/12/11 02:45:47;;;;;;;0.80;0.80;;;-2.60;99.90;;;;;;6159227;23;20020;-85
2021/12/11 02:48:29;;;;;;;1.05;0.95;;;-2.60;99.90;;;;;;6158842;23;20074;-85
2021/12/11 02:51:15;;;;;;;2.10;1.83;;;-2.70;99.90;;;;;;6184083;23;20081;-84
2021/12/11 02:53:58;;;;;;;1.48;1.35;;;-2.60;99.90;;;;;;6159152;23;20008;-85
2021/12/11 02:56:33;;;;;;;1.30;1.20;;;-2.60;99.90;;;;;;6158732;23;20042;-85
2021/12/11 02:59:06;;;;;;;0.63;0.63;;;-2.60;99.90;;;;;;6159185;23;20019;-84
2021/12/11 03:01:38;;;;;;;0.90;0.90;;;-2.60;99.90;;;;;;6159019;23;20017;-84
2021/12/11 03:04:20;;;;;;;1.13;1.05;;;-2.60;99.90;;;;;;6184663;23;20020;-84
2021/12/11 03:06:48;;;;;;;0.82;0.73;;;-2.60;99.90;;;;;;6135082;23;20008;-84
2021/12/11 03:09:17;;;;;;;0.57;0.57;;;-2.60;99.90;;;;;;6161793;23;20450;-84
2021/12/11 03:11:43;;;;;;;0.93;0.90;;;-2.60;99.90;;;;;;6162252;23;20028;-84
2021/12/11 03:14:13;;;;;;;1.25;1.15;;;-2.60;99.90;;;;;;6138711;23;20008;-85
2021/12/11 03:16:40;;;;;;;0.80;0.80;;;-2.60;99.90;;;;;;6161951;23;20099;-85
2021/12/11 03:19:08;;;;;;;0.60;0.60;;;-2.60;99.90;;;;;;6162038;23;20013;-85
2021/12/11 03:21:35;;;;;;;1.95;1.45;;;-2.60;99.90;;;;;;6162723;22;20009;-85
2021/12/11 03:24:01;;;;;;;1.33;1.23;;;-2.60;99.90;;;;;;6162023;23;20083;-85
2021/12/11 03:26:27;;;;;;;1.13;1.08;;;-1.70;99.90;;;;;;6186945;22;20009;-85
2021/12/11 03:28:53;;;;;;;0.60;0.60;;;-2.70;99.90;;;;;;6186584;22;20105;-84
2021/12/11 03:31:19;;;;;;;0.90;0.90;;;-2.70;99.90;;;;;;6162347;22;20008;-85
2021/12/11 03:33:50;;;;;;;0.55;0.55;;;-2.70;99.90;;;;;;6187094;22;20498;-85
2021/12/11 03:36:18;;;;;;;0.70;0.70;;;-2.70;99.90;;;;;;6162343;22;20345;-85
2021/12/11 03:38:52;;;;;;;4.35;3.92;;;-2.70;99.90;;;;;;6162128;23;20020;-84
2021/12/11 03:41:20;;;;;;;1.80;1.70;;;-2.70;99.90;;;;;;6162148;23;20050;-84
2021/12/11 03:43:48;;;;;;;0.98;0.98;;;-2.70;99.90;;;;;;6162109;23;20449;-85
2021/12/11 03:46:15;;;;;;;1.35;1.25;;;-2.80;99.90;;;;;;6161818;23;20020;-84
2021/12/11 03:48:47;;;;;;;3.53;1.50;;;-2.80;99.90;;;;;;6137609;23;20009;-84
2021/12/11 03:51:19;;;;;;;3.22;2.92;;;-2.80;99.90;;;;;;6139514;23;20013;-84
2021/12/11 03:53:46;;;;;;;0.50;0.50;;;-2.80;99.90;;;;;;6162537;22;20016;-85
2021/12/11 03:56:15;;;;;;;1.50;1.40;;;-2.80;99.90;;;;;;6161563;23;20453;-85
2021/12/11 03:58:48;;;;;;;1.42;1.33;;;-2.80;99.90;;;;;;6186308;22;20387;-85
2021/12/11 04:01:21;;;;;;;2.53;1.67;;;-2.80;99.90;;;;;;6161853;23;20012;-85
2021/12/11 04:03:48;;;;;;;6.07;3.25;;;-2.60;99.90;;;;;;6137810;23;20080;-85
2021/12/11 04:06:17;;;;;;;2.17;1.40;;;-2.60;99.90;;;;;;6162264;22;20061;-85
2021/12/11 04:08:46;;;;;;;1.95;1.65;;;-2.40;99.90;;;;;;6137450;23;20013;-85
2021/12/11 04:11:19;;;;;;;1.00;1.00;;;-2.30;99.90;;;;;;6161590;23;20095;-85
2021/12/11 04:13:46;;;;;;;0.93;0.93;;;-2.30;99.90;;;;;;6186630;22;20012;-84
2021/12/11 04:16:14;;;;;;;0.60;0.60;;;-2.20;99.90;;;;;;6161648;23;20040;-85
2021/12/11 04:18:40;;;;;;;0.60;0.60;;;-2.20;99.90;;;;;;6162316;22;20017;-84
2021/12/11 04:21:06;;;;;;;1.17;1.08;;;-2.20;99.90;;;;;;6158592;23;20013;-85
2021/12/11 04:23:32;;;;;;;13.63;12.25;;;-2.30;99.90;;;;;;6159931;23;20028;-84
2021/12/11 04:25:59;;;;;;;6.78;3.65;;;-2.50;99.90;;;;;;6159897;23;20016;-85
2021/12/11 04:28:29;;;;;;;5.25;3.15;;;-2.70;99.90;;;;;;6159556;23;20012;-84
2021/12/11 04:31:03;;;;;;;2.38;2.13;;;-2.90;99.90;;;;;;6160074;23;20012;-86
2021/12/11 04:33:32;;;;;;;4.15;2.92;;;-3.00;99.90;;;;;;6114211;23;20016;-85
2021/12/11 04:36:00;;;;;;;1.27;1.17;;;-3.10;99.90;;;;;;6159927;23;20522;-85
2021/12/11 04:38:27;;;;;;;1.35;1.25;;;-3.10;99.90;;;;;;6135049;23;20058;-84
2021/12/11 04:40:56;;;;;;;1.67;1.25;;;-3.10;99.90;;;;;;6159782;23;20054;-85
2021/12/11 04:43:24;;;;;;;0.80;0.80;;;-3.20;99.90;;;;;;6160424;23;20009;-84
2021/12/11 04:46:05;;;;;;;0.60;0.60;;;-3.10;99.90;;;;;;6159901;23;20020;-85
2021/12/11 04:48:59;;;;;;;1.38;1.25;;;-3.10;99.90;;;;;;6159694;23;20349;-85
2021/12/11 04:51:42;;;;;;;3.97;1.02;;;-3.10;99.90;;;;;;6159780;23;20009;-85
2021/12/11 05:10:06;;;;;;;9.60;3.53;;;-3.00;99.90;;;;;;6184649;22;20066;-85
2021/12/11 05:12:35;;;;;;;1.25;1.10;;;-3.00;99.90;;;;;;6160007;23;20091;-85
2021/12/11 05:15:14;;;;;;;1.63;1.40;;;-3.00;99.90;;;;;;6184417;23;20016;-85
2021/12/11 05:17:41;;;;;;;1.40;1.30;;;-3.00;99.90;;;;;;6159489;23;20592;-84
2021/12/11 05:20:09;;;;;;;4.22;2.50;;;-3.00;99.90;;;;;;6160011;22;20514;-85
2021/12/11 05:22:35;;;;;;;1.23;1.13;;;-3.00;99.90;;;;;;6160529;22;20016;-84
2021/12/11 05:25:01;;;;;;;1.65;1.55;;;-3.00;99.90;;;;;;6159660;23;20087;-85
2021/12/11 05:27:28;;;;;;;0.90;0.85;;;-3.00;99.90;;;;;;6159694;22;20433;-85
2021/12/11 05:29:54;;;;;;;3.40;2.50;;;-3.10;99.90;;;;;;6159644;23;20408;-84
2021/12/11 05:32:23;;;;;;;1.00;0.98;;;-3.10;99.90;;;;;;6135227;23;20012;-85
2021/12/11 05:34:50;;;;;;;4.22;2.20;;;-3.10;99.90;;;;;;6159647;23;20016;-86
2021/12/11 05:37:16;;;;;;;1.13;1.10;;;-2.90;99.90;;;;;;6159390;22;20449;-85
2021/12/11 05:39:41;;;;;;;3.05;2.00;;;-3.00;99.90;;;;;;6160162;22;20019;-85
2021/12/11 05:42:09;;;;;;;1.10;1.05;;;-3.00;99.90;;;;;;6159790;23;20040;-85
2021/12/11 05:44:35;;;;;;;1.35;1.25;;;-3.10;99.90;;;;;;6135302;23;20062;-85
2021/12/11 05:47:02;;;;;;;0.50;0.50;;;-3.10;99.90;;;;;;6159356;22;20004;-85
2021/12/11 05:49:33;;;;;;;1.00;0.90;;;-3.10;99.90;;;;;;6137415;23;20069;-85
2021/12/11 05:52:01;;;;;;;1.10;1.00;;;-3.10;99.90;;;;;;6159609;22;20099;-85
2021/12/11 05:54:28;;;;;;;2.03;1.35;;;-3.00;99.90;;;;;;6159549;23;20012;-84
2021/12/11 05:57:00;;;;;;;0.77;0.75;;;-3.00;99.90;;;;;;6159449;23;20024;-84
2021/12/11 05:59:27;;;;;;;0.60;0.60;;;-2.90;99.90;;;;;;6184183;23;20013;-84
2021/12/11 06:01:58;;;;;;;1.05;0.95;;;-2.90;99.90;;;;;;6159646;22;20013;-84
2021/12/11 06:04:28;;;;;;;0.57;0.57;;;-2.80;99.90;;;;;;6159585;23;20468;-84
2021/12/11 06:06:55;;;;;;;1.52;1.23;;;-2.80;99.90;;;;;;6159933;22;20327;-84
2021/12/11 06:09:24;;;;;;;2.33;1.52;;;-2.70;99.90;;;;;;6159714;23;20013;-84
2021/12/11 06:11:52;;;;;;;1.27;1.17;;;-2.70;99.90;;;;;;6159820;22;20021;-85
2021/12/11 06:14:20;;;;;;;1.58;1.45;;;-2.70;99.90;;;;;;6159651;22;20055;-84
2021/12/11 06:16:51;;;;;;;3.95;2.92;;;-2.80;99.90;;;;;;6159570;22;20016;-84
2021/12/11 06:19:20;;;;;;;2.15;1.83;;;-3.10;99.90;;;;;;6159087;23;20013;-85
2021/12/11 06:21:49;;;;;;;6.03;2.70;;;-3.40;99.90;;;;;;6160940;22;20087;-84
2021/12/11 06:24:15;;;;;;;16.88;8.75;;;-3.50;99.90;;;;;;6159455;22;20008;-85
2021/12/11 06:26:42;;;;;;;15.55;7.57;;;-3.70;99.90;;;;;;6183952;22;20099;-85
2021/12/11 06:29:07;;;;;;;6.25;2.95;;;-4.00;99.90;;;;;;6159496;23;20008;-85
2021/12/11 06:31:33;;;;;;;1.75;1.50;;;-4.10;99.90;;;;;;6134706;23;20373;-84
2021/12/11 06:33:59;;;;;;;2.22;1.55;;;-4.00;99.90;;;;;;6159258;23;20008;-85
2021/12/11 06:36:26;;;;;;;3.93;2.63;;;-4.10;99.90;;;;;;6159085;22;20012;-85
2021/12/11 06:38:56;;;;;;;9.77;4.60;;;-3.90;99.90;;;;;;6159308;23;20435;-84
2021/12/11 06:41:26;;;;;;;5.87;3.60;;;-3.90;99.90;;;;;;6159466;23;20016;-84
2021/12/11 06:43:52;;;;;;;6.47;4.00;;;-3.80;99.90;;;;;;6158943;23;20346;-84
2021/12/11 06:46:18;;;;;;;5.55;3.42;;;-3.90;99.90;;;;;;6159655;22;20012;-85
2021/12/11 06:48:45;;;;;;;1.30;1.20;;;-3.80;99.90;;;;;;6183935;23;20069;-85
2021/12/11 06:51:11;;;;;;;0.90;0.90;;;-3.80;99.90;;;;;;6134529;23;20061;-85
2021/12/11 06:53:46;;;;;;;1.20;1.13;;;-3.70;99.90;;;;;;6159929;22;20068;-84
2021/12/11 06:56:15;;;;;;;0.50;0.50;;;-3.50;99.90;;;;;;6184302;22;20012;-84
2021/12/11 06:58:41;;;;;;;0.60;0.60;;;-3.30;99.90;;;;;;6183978;23;20433;-84
2021/12/11 07:01:09;;;;;;;0.70;0.70;;;-3.20;99.90;;;;;;6134801;23;20044;-85
2021/12/11 07:03:37;;;;;;;0.77;0.75;;;-3.10;99.90;;;;;;6158509;22;20341;-85
2021/12/11 07:06:03;;;;;;;1.20;1.10;;;-2.40;99.90;;;;;;6159567;22;20035;-85
2021/12/11 07:08:29;;;;;;;2.60;2.40;;;-2.80;99.90;;;;;;6159420;22;20005;-85
2021/12/11 07:10:58;;;;;;;2.53;2.30;;;-2.90;99.90;;;;;;6158970;23;20023;-84
2021/12/11 07:13:24;;;;;;;0.95;0.95;;;-2.90;99.90;;;;;;6158970;23;20017;-85
2021/12/11 07:15:52;;;;;;;0.75;0.75;;;-2.80;99.90;;;;;;6159156;23;20020;-84
2021/12/11 07:18:18;;;;;;;2.20;2.08;;;-2.80;99.90;;;;;;6158827;23;20353;-85
2021/12/11 07:20:45;;;;;;;1.48;1.17;;;-2.90;99.90;;;;;;6183399;22;20315;-85
2021/12/11 07:23:11;;;;;;;0.60;0.60;;;-3.00;99.90;;;;;;6183424;22;20013;-85
2021/12/11 07:25:59;;;;;;;1.33;1.23;;;-3.10;99.90;;;;;;6158459;23;20337;-85
2021/12/11 07:28:25;;;;;;;2.15;1.95;;;-3.10;99.90;;;;;;6158619;22;20016;-85
2021/12/11 07:30:53;;;;;;;0.70;0.70;;;-3.10;99.90;;;;;;6158318;23;20013;-85
2021/12/11 07:33:19;;;;;;;1.17;1.03;;;-3.10;99.90;;;;;;6158279;23;20016;-84
2021/12/11 07:35:46;;;;;;;0.50;0.50;;;-3.20;99.90;;;;;;6158945;22;20352;-85
2021/12/11 07:38:12;;;;;;;1.10;1.00;;;-3.20;99.90;;;;;;6157984;22;20048;-85
2021/12/11 07:40:49;;;;;;;3.22;1.67;;;-3.10;99.90;;;;;;6158170;23;20020;-85
2021/12/11 07:43:15;;;;;;;1.27;1.17;;;-3.10;99.90;;;;;;6158051;23;20044;-85
2021/12/11 07:45:41;;;;;;;3.42;1.88;;;-3.00;99.90;;;;;;6158211;22;20012;-85
2021/12/11 07:48:08;;;;;;;0.65;0.65;;;-2.90;99.90;;;;;;6157928;22;20016;-85
2021/12/11 07:50:34;;;;;;;0.60;0.60;;;-2.90;99.90;;;;;;6158594;22;20024;-85
2021/12/11 07:53:00;;;;;;;0.93;0.80;;;-2.90;99.90;;;;;;6158358;23;20009;-85
2021/12/11 07:55:26;;;;;;;1.00;0.93;;;-2.80;99.90;;;;;;6159261;23;20069;-85
2021/12/11 07:57:53;;;;;;;1.73;1.50;;;-2.90;99.90;;;;;;6159297;22;20472;-85
2021/12/11 08:00:22;;;;;;;10.40;2.55;;;-2.90;99.90;;;;;;6159414;23;20016;-86
2021/12/11 08:02:48;;;;;;;0.80;0.77;;;-2.90;99.90;;;;;;6184199;22;20013;-86
2021/12/11 08:05:14;;;;;;;2.50;1.87;;;-2.80;99.90;;;;;;6159585;23;20108;-85
2021/12/11 08:07:40;;;;;;;1.17;1.08;;;-2.80;99.90;;;;;;6159368;22;20452;-85
2021/12/11 08:10:11;;;;;;;2.30;1.80;;;-2.80;99.90;;;;;;6159495;23;20021;-85
2021/12/11 08:12:36;;;;;;;4.32;2.45;;;-2.80;99.90;;;;;;6159608;22;20017;-85
2021/12/11 08:15:05;;;;;;;1.23;1.13;;;-2.70;99.90;;;;;;6184160;22;20077;-85
2021/12/11 08:17:31;;;;;;;1.58;1.48;;;-2.70;99.90;;;;;;6159140;23;20040;-85
2021/12/11 08:19:57;;;;;;;2.38;2.22;;;-2.70;99.90;;;;;;6159384;23;20023;-84
2021/12/11 08:22:23;;;;;;;1.15;1.05;;;-2.70;99.90;;;;;;6159270;23;20100;-85
2021/12/11 08:24:49;;;;;;;1.30;1.20;;;-2.70;99.90;;;;;;6159744;22;20009;-85
2021/12/11 08:27:20;;;;;;;5.63;3.47;;;-2.70;99.90;;;;;;6159023;23;20040;-84
2021/12/11 08:29:47;;;;;;;1.05;0.88;;;-2.70;99.90;;;;;;6159619;22;20024;-85
2021/12/11 08:32:14;;;;;;;0.60;0.60;;;-2.60;99.90;;;;;;6159849;22;20048;-86
2021/12/11 08:34:40;;;;;;;1.15;1.08;;;-2.60;99.90;;;;;;6159356;22;20092;-86
2021/12/11 08:37:08;;;;;;;4.13;2.25;;;-2.50;99.90;;;;;;6159515;22;20059;-85
2021/12/11 08:39:35;;;;;;;0.90;0.90;;;-2.50;99.90;;;;;;6159243;23;20040;-85
2021/12/11 08:42:03;;;;;;;2.28;2.00;;;-2.40;99.90;;;;;;6159226;23;20013;-85
2021/12/11 08:44:34;;;;;;;4.22;3.83;;;-2.40;99.90;;;;;;6183996;22;20015;-84
2021/12/11 08:47:07;;;;;;;1.20;1.05;;;-2.30;99.90;;;;;;6159377;22;20356;-85
2021/12/11 08:49:34;;;;;;;2.42;2.22;;;-2.20;99.90;;;;;;6159143;23;20020;-85
2021/12/11 08:52:12;;;;;;;3.53;3.20;;;-2.10;99.90;;;;;;6183842;22;20454;-85
2021/12/11 08:54:39;;;;;;;5.13;4.70;;;-2.10;99.90;;;;;;6158556;23;20012;-85
2021/12/11 08:57:07;;;;;;;1.92;1.77;;;-2.00;99.90;;;;;;6158727;23;20347;-85
2021/12/11 08:59:39;;;;;;;1.55;1.45;;;-2.00;99.90;;;;;;6159519;22;20021;-85
2021/12/11 09:02:22;;;;;;;1.30;1.20;;;-1.90;99.90;;;;;;6159670;22;20429;-85
2021/12/11 09:05:10;;;;;;;2.10;1.40;;;-1.90;99.90;;;;;;6159563;22;20019;-85
2021/12/11 09:07:44;;;;;;;1.73;1.63;;;-1.80;99.90;;;;;;6159427;22;20009;-85
2021/12/11 09:10:20;;;;;;;2.85;2.30;;;-1.70;99.90;;;;;;6159249;23;20012;-85
2021/12/11 09:12:58;;;;;;;1.27;1.17;;;-1.60;99.90;;;;;;6159295;22;20091;-85
2021/12/11 09:15:29;;;;;;;0.77;0.75;;;-1.60;99.90;;;;;;6158987;22;20077;-85
2021/12/11 09:18:08;;;;;;;1.40;1.30;;;-1.50;99.90;;;;;;6159346;22;20016;-85
2021/12/11 09:20:43;;;;;;;0.88;0.88;;;-1.50;99.90;;;;;;6183634;23;20012;-85
2021/12/11 09:23:35;;;;;;;1.63;1.52;;;-1.40;99.90;;;;;;6158684;23;20095;-85
2021/12/11 09:26:11;;;;;;;1.50;1.40;;;-1.30;99.90;;;;;;6158910;23;20040;-86
2021/12/11 09:29:12;;;;;;;2.60;1.45;;;-1.30;99.90;;;;;;6158642;23;20019;-85
2021/12/11 09:32:03;;;;;;;6.43;3.15;;;-1.20;99.90;;;;;;6159650;22;20012;-85
2021/12/11 09:34:37;;;;;;;0.63;0.63;;;-1.20;99.90;;;;;;6158881;23;20013;-84
2021/12/11 09:37:06;;;;;;;1.65;1.55;;;-1.10;99.90;;;;;;6159490;22;20338;-85
2021/12/11 09:39:40;;;;;;;0.50;0.50;;;-1.10;99.90;;;;;;6158552;23;20457;-85
2021/12/11 09:42:07;;;;;;;0.85;0.85;;;-1.00;99.90;;;;;;6158895;22;20013;-85
2021/12/11 09:44:42;;;;;;;0.80;0.80;;;-0.90;99.90;;;;;;6158722;23;20314;-85
2021/12/11 09:47:31;;;;;;;2.97;2.78;;;-0.90;99.90;;;;;;6183023;22;20012;-85
2021/12/11 09:50:03;;;;;;;0.68;0.68;;;-0.80;99.90;;;;;;6183418;22;20087;-85
2021/12/11 09:52:32;;;;;;;0.90;0.90;;;-0.80;99.90;;;;;;6158689;23;20095;-85
2021/12/11 09:55:04;;;;;;;3.47;1.23;;;-0.70;99.90;;;;;;6158844;23;20012;-85
2021/12/11 09:57:34;;;;;;;5.28;2.97;;;-0.60;99.90;;;;;;6158759;22;20023;-85
2021/12/11 10:00:02;;;;;;;3.20;2.38;;;-0.60;99.90;;;;;;6158626;23;20062;-85
2021/12/11 10:02:31;;;;;;;2.33;1.33;;;-0.50;99.90;;;;;;6159112;22;20088;-85
2021/12/11 10:05:03;;;;;;;3.03;1.85;;;-0.50;99.90;;;;;;6158867;23;20009;-85
2021/12/11 10:07:36;;;;;;;8.38;3.25;;;-0.40;99.90;;;;;;6158502;23;20315;-85
2021/12/11 10:10:17;;;;;;;1.55;1.45;;;-0.40;99.90;;;;;;6158789;23;20058;-85
2021/12/11 10:12:50;;;;;;;2.28;1.48;;;-0.30;99.90;;;;;;6158765;23;20473;-85
2021/12/11 10:15:30;;;;;;;4.78;3.30;;;-0.30;99.90;;;;;;6183470;22;20020;-85
2021/12/11 10:18:07;;;;;;;1.95;1.60;;;-0.20;99.90;;;;;;6182576;23;20015;-86
2021/12/11 10:21:05;;;;;;;1.20;1.10;;;-0.10;99.90;;;;;;6158334;23;20446;-85
2021/12/11 10:23:33;;;;;;;1.60;1.50;;;-0.10;99.90;;;;;;6158766;22;20017;-85
2021/12/11 10:26:00;;;;;;;2.40;1.83;;;0.00;99.90;;;;;;6158086;22;20434;-85
2021/12/11 10:28:29;;;;;;;1.38;1.27;;;0.00;99.90;;;;;;6158426;23;20017;-85
2021/12/11 10:31:05;;;;;;;1.02;0.93;;;0.20;99.90;;;;;;6158249;23;20047;-85
2021/12/11 10:33:31;;;;;;;;;;;0.10;99.90;;;;;;6159486;22;20040;-85
2021/12/11 10:35:59;;;;;;;0.60;0.60;;;0.20;99.90;;;;;;6158887;22;19912;-85
2021/12/11 10:38:26;;;;;;;21.80;3.78;;;0.20;99.90;;;;;;6158192;23;20017;-85
2021/12/11 10:40:56;;;;;;;5.55;2.15;;;0.30;99.90;;;;;;6158708;22;20095;-85
2021/12/11 10:43:46;;;;;;;5.88;3.53;;;0.30;99.90;;;;;;6158588;22;20016;-85
2021/12/11 10:46:16;;;;;;;4.80;2.90;;;0.40;99.90;;;;;;6182700;23;20075;-85
2021/12/11 10:48:44;;;;;;;1.45;1.35;;;0.50;99.90;;;;;;6158358;22;20008;-85
2021/12/11 10:51:18;;;;;;;4.13;2.80;;;0.50;99.90;;;;;;6158054;23;20017;-85
2021/12/11 10:53:46;;;;;;;1.73;1.33;;;0.60;99.90;;;;;;6158245;23;20041;-84
2021/12/11 10:56:15;;;;;;;3.35;2.28;;;0.60;99.90;;;;;;6157161;23;20129;-84
2021/12/11 10:58:51;;;;;;;0.98;0.93;;;0.70;99.90;;;;;;6157180;22;20016;-85
2021/12/11 11:01:28;;;;;;;1.02;0.85;;;0.70;99.90;;;;;;6158572;22;20210;-84
2021/12/11 11:03:59;;;;;;;1.45;1.08;;;0.80;99.90;;;;;;6157810;23;20013;-84
2021/12/11 11:06:25;;;;;;;2.45;2.25;;;0.90;99.90;;;;;;6182509;22;20469;-85
2021/12/11 11:08:51;;;;;;;2.83;1.92;;;0.90;99.90;;;;;;6158378;22;20012;-85
2021/12/11 11:11:20;;;;;;;3.35;2.63;;;1.00;99.90;;;;;;6157541;23;20013;-84
2021/12/11 11:13:46;;;;;;;1.42;1.30;;;1.00;99.90;;;;;;6158297;22;20012;-84
2021/12/11 11:16:14;;;;;;;3.33;2.40;;;1.10;99.90;;;;;;6158201;22;20088;-84
2021/12/11 11:18:40;;;;;;;3.90;2.67;;;1.10;99.90;;;;;;6183212;22;20048;-84
2021/12/11 11:21:13;;;;;;;0.50;0.50;;;1.10;99.90;;;;;;6157745;23;20009;-84
2021/12/11 11:23:40;;;;;;;4.47;3.03;;;1.20;99.90;;;;;;6158342;23;20008;-84
2021/12/11 11:26:12;;;;;;;1.80;1.45;;;1.30;99.90;;;;;;6158594;22;20044;-85
2021/12/11 11:28:39;;;;;;;5.95;3.15;;;1.30;99.90;;;;;;6158142;23;20009;-85
2021/12/11 11:31:08;;;;;;;2.67;1.98;;;1.30;99.90;;;;;;6184072;22;20044;-84
2021/12/11 11:33:35;;;;;;;3.00;2.60;;;1.40;99.90;;;;;;6159281;23;20012;-84
2021/12/11 11:36:03;;;;;;;3.28;2.63;;;1.40;99.90;;;;;;6159952;22;20048;-85
2021/12/11 11:38:32;;;;;;;4.75;2.45;;;1.50;99.90;;;;;;6159527;22;20055;-85
2021/12/11 11:41:05;;;;;;;11.15;5.47;;;1.60;99.90;;;;;;6158759;23;20021;-85
2021/12/11 11:43:31;;;;;;;6.13;3.58;;;1.60;99.90;;;;;;6160355;22;20057;-84
2021/12/11 11:45:57;;;;;;;2.03;1.88;;;2.80;99.90;;;;;;6184104;23;20095;-84
2021/12/11 11:48:25;;;;;;;7.95;5.18;;;1.90;99.90;;;;;;6159687;22;20470;-84
2021/12/11 11:50:53;;;;;;;8.68;5.03;;;1.90;99.90;;;;;;6159141;23;20020;-84
2021/12/11 11:53:24;;;;;;;9.32;5.32;;;2.00;99.90;;;;;;6159296;22;20019;-84
2021/12/11 11:55:56;;;;;;;2.80;2.08;;;2.00;99.90;;;;;;6159516;23;20323;-84
2021/12/11 11:58:22;;;;;;;6.80;4.13;;;2.00;99.90;;;;;;6183637;23;20421;-84
2021/12/11 12:00:53;;;;;;;3.53;2.65;;;2.10;99.90;;;;;;6183875;22;20019;-84
2021/12/11 12:03:21;;;;;;;5.82;4.10;;;2.20;99.90;;;;;;6159359;23;20054;-84
2021/12/11 12:05:49;;;;;;;10.35;4.97;;;2.20;99.90;;;;;;6160120;22;20024;-84
2021/12/11 12:08:16;;;;;;;15.32;4.97;;;2.30;99.90;;;;;;6159022;23;20013;-85
2021/12/11 12:10:45;;;;;;;10.52;6.90;;;2.40;99.90;;;;;;6158608;23;20048;-85
2021/12/11 12:13:11;;;;;;;3.50;2.75;;;2.50;99.90;;;;;;6158838;22;20016;-84
2021/12/11 12:15:45;;;;;;;6.20;3.30;;;2.60;99.90;;;;;;6159634;23;20066;-84
2021/12/11 12:18:14;;;;;;;4.45;3.20;;;2.60;99.90;;;;;;6159312;23;20061;-85
2021/12/11 12:20:41;;;;;;;8.88;4.35;;;2.70;99.90;;;;;;6159134;22;20020;-84
2021/12/11 12:23:08;;;;;;;4.88;2.83;;;2.80;99.90;;;;;;6159007;23;20053;-85
2021/12/11 12:25:36;;;;;;;6.28;2.50;;;2.80;99.90;;;;;;6158917;23;20016;-84
2021/12/11 12:28:02;;;;;;;13.15;5.40;;;2.80;99.90;;;;;;6158879;22;20009;-84
2021/12/11 12:30:36;;;;;;;8.85;6.30;;;3.60;99.90;;;;;;6159246;22;20012;-85
2021/12/11 12:33:03;;;;;;;6.10;3.83;;;2.90;99.90;;;;;;6158798;23;20017;-84
2021/12/11 12:35:29;;;;;;;8.48;4.13;;;2.90;99.90;;;;;;6183698;23;20052;-84
2021/12/11 12:37:58;;;;;;;5.70;4.13;;;3.00;99.90;;;;;;6183182;23;20183;-84
2021/12/11 12:40:33;;;;;;;11.38;5.78;;;3.00;99.90;;;;;;6158288;23;20024;-84
2021/12/11 12:43:11;;;;;;;3.38;2.95;;;3.00;99.90;;;;;;6159128;22;20012;-83
2021/12/11 12:45:47;;;;;;;8.15;3.15;;;3.00;99.90;;;;;;6158894;23;20032;-84
2021/12/11 12:48:17;;;;;;;16.67;7.60;;;3.00;99.90;;;;;;6159550;22;20503;-84
2021/12/11 12:50:53;;;;;;;13.15;6.93;;;3.10;99.90;;;;;;6158762;23;20103;-84
2021/12/11 12:53:20;;;;;;;2.97;2.55;;;3.10;99.90;;;;;;6159058;22;20016;-84
2021/12/11 12:55:51;;;;;;;3.80;2.35;;;3.10;99.90;;;;;;6158804;23;20021;-84
2021/12/11 12:58:23;;;;;;;2.88;2.17;;;3.20;99.90;;;;;;6158429;22;20399;-84
2021/12/11 13:01:23;;;;;;;5.88;3.05;;;3.20;99.90;;;;;;6159470;22;20059;-85
2021/12/11 13:03:50;;;;;;;7.03;1.90;;;3.20;99.90;;;;;;6158495;23;20441;-84
2021/12/11 13:06:21;;;;;;;7.75;3.63;;;3.20;99.90;;;;;;6159744;22;20016;-84
2021/12/11 13:08:54;;;;;;;7.43;4.18;;;3.20;99.90;;;;;;6184148;22;20096;-85
2021/12/11 13:11:29;;;;;;;14.00;4.82;;;3.20;99.90;;;;;;6158827;23;20021;-84
2021/12/11 13:13:56;;;;;;;6.22;4.32;;;3.10;99.90;;;;;;6158945;22;20009;-84
2021/12/11 13:16:26;;;;;;;3.20;2.35;;;3.10;99.90;;;;;;6159213;23;20044;-84
2021/12/11 13:18:59;;;;;;;5.80;3.67;;;3.20;99.90;;;;;;6183778;22;20024;-84
2021/12/11 13:21:34;;;;;;;12.23;6.63;;;3.20;99.90;;;;;;6288921;22;20018;-84
2021/12/11 13:24:06;;;;;;;6.72;4.82;;;3.10;99.90;;;;;;6288566;22;20096;-84
2021/12/11 13:26:34;;;;;;;6.35;3.28;;;3.20;99.90;;;;;;6288955;22;20016;-84